createdAt,value
2017-09-07T03:32:08.449Z,77.10
2017-09-07T03:34:36.129Z,78.80
2017-09-07T03:37:03.708Z,77.00
2017-09-07T03:39:31.341Z,77.80
2017-09-07T03:41:59.017Z,77.00
2017-09-07T03:44:26.593Z,76.90
2017-09-07T03:46:54.229Z,77.90
2017-09-07T03:49:21.814Z,77.40
2017-09-07T03:51:49.449Z,76.80
2017-09-07T03:54:17.110Z,78.00
2017-09-07T03:56:44.699Z,76.50
2017-09-07T03:59:12.327Z,76.30
2017-09-07T04:01:40.006Z,76.80
2017-09-07T04:04:07.649Z,76.70
2017-09-07T04:06:35.289Z,76.40
2017-09-07T04:09:02.889Z,75.90
2017-09-07T04:11:30.465Z,76.50
2017-09-07T04:13:58.294Z,77.20
2017-09-07T04:16:25.893Z,76.50
2017-09-07T04:18:53.509Z,77.10
2017-09-07T04:21:21.985Z,77.70
2017-09-07T04:23:50.329Z,78.70
2017-09-07T04:26:17.926Z,78.20
2017-09-07T04:28:45.553Z,78.00
2017-09-07T04:31:13.133Z,80.00
2017-09-07T04:33:40.709Z,80.70
2017-09-07T04:36:08.361Z,79.10
2017-09-07T04:38:36.024Z,79.90
2017-09-07T04:41:03.613Z,78.00
2017-09-07T04:43:31.249Z,79.10
2017-09-07T04:45:59.615Z,80.00
2017-09-07T04:48:27.280Z,80.10
2017-09-07T04:50:54.942Z,79.00
2017-09-07T04:53:22.594Z,77.50
2017-09-07T04:55:50.173Z,80.20
2017-09-07T04:58:17.817Z,77.60
2017-09-07T05:00:45.402Z,77.90
2017-09-07T05:03:12.982Z,79.20
2017-09-07T05:05:40.797Z,78.00
2017-09-07T05:08:09.154Z,77.30
2017-09-07T05:10:36.838Z,77.30
2017-09-07T05:13:04.697Z,78.20
2017-09-07T05:15:32.357Z,77.60
2017-09-07T05:18:00.022Z,79.30
2017-09-07T05:20:27.657Z,77.70
2017-09-07T05:22:55.241Z,82.50
2017-09-07T05:25:22.906Z,77.90
2017-09-07T05:27:50.527Z,78.40
2017-09-07T05:30:18.109Z,77.70
2017-09-07T05:32:45.694Z,77.80
2017-09-07T05:35:13.337Z,77.20
2017-09-07T05:37:40.918Z,77.10
2017-09-07T05:40:08.506Z,76.40
2017-09-07T05:42:36.194Z,77.30
2017-09-07T05:45:03.877Z,77.00
2017-09-07T05:47:31.569Z,76.60
2017-09-07T05:49:59.182Z,76.50
2017-09-07T05:52:26.866Z,77.40
2017-09-07T05:54:54.477Z,75.40
2017-09-07T05:57:22.057Z,76.40
2017-09-07T05:59:49.641Z,76.00
2017-09-07T06:02:17.375Z,78.30
2017-09-07T06:04:44.960Z,75.60
2017-09-07T06:07:12.537Z,76.10
2017-09-07T06:09:40.162Z,74.50
2017-09-07T06:12:07.745Z,74.00
2017-09-07T06:14:35.329Z,74.40
2017-09-07T06:17:02.975Z,75.50
2017-09-07T06:19:30.553Z,74.70
2017-09-07T06:21:58.134Z,73.90
2017-09-07T06:24:25.742Z,76.20
2017-09-07T06:26:53.326Z,73.70
2017-09-07T06:29:20.970Z,74.00
2017-09-07T06:31:48.550Z,74.60
2017-09-07T06:34:16.134Z,74.20
2017-09-07T06:36:43.926Z,73.50
2017-09-07T06:39:11.509Z,74.00
2017-09-07T06:41:39.089Z,74.70
2017-09-07T06:44:06.705Z,73.80
2017-09-07T06:46:34.285Z,73.00
2017-09-07T06:49:01.866Z,73.50
2017-09-07T06:51:29.657Z,75.80
2017-09-07T06:53:57.237Z,74.00
2017-09-07T06:56:24.817Z,74.30
2017-09-07T06:58:52.453Z,75.40
2017-09-07T07:01:20.125Z,76.00
2017-09-07T07:03:47.709Z,75.00
2017-09-07T07:06:15.337Z,74.20
2017-09-07T07:08:42.917Z,75.10
2017-09-07T07:11:10.509Z,76.30
2017-09-07T07:13:38.128Z,75.60
2017-09-07T07:16:05.714Z,77.90
2017-09-07T07:18:33.297Z,76.10
2017-09-07T07:21:00.937Z,75.40
2017-09-07T07:23:28.518Z,77.00
2017-09-07T07:25:56.115Z,76.10
2017-09-07T07:28:23.769Z,77.30
2017-09-07T07:30:52.149Z,78.00
2017-09-07T07:33:19.733Z,77.80
2017-09-07T07:35:47.365Z,75.60
2017-09-07T07:38:14.950Z,77.20
2017-09-07T07:40:42.533Z,78.50
2017-09-07T07:43:10.154Z,76.20
2017-09-07T07:45:37.747Z,76.70
2017-09-07T07:48:05.334Z,76.40
2017-09-07T07:50:32.965Z,76.00
2017-09-07T07:53:00.583Z,76.90
2017-09-07T07:55:28.245Z,76.00
2017-09-07T07:57:55.888Z,76.90
2017-09-07T08:00:23.478Z,76.20
2017-09-07T08:02:51.068Z,75.80
2017-09-07T08:05:18.678Z,78.00
2017-09-07T08:07:46.274Z,74.70
2017-09-07T08:10:13.900Z,74.50
2017-09-07T08:12:42.258Z,73.60
2017-09-07T08:15:09.849Z,73.80
2017-09-07T08:17:37.488Z,72.50
2017-09-07T08:20:05.386Z,73.30
2017-09-07T08:22:32.972Z,71.90
2017-09-07T08:25:00.606Z,73.10
2017-09-07T08:27:28.197Z,71.20
2017-09-07T08:29:55.788Z,71.10
2017-09-07T08:32:23.408Z,70.90
2017-09-07T08:34:50.989Z,71.60
2017-09-07T08:37:18.881Z,70.90
2017-09-07T08:39:46.465Z,71.20
2017-09-07T08:42:14.050Z,71.30
2017-09-07T08:44:41.669Z,69.90
2017-09-07T08:47:09.267Z,69.90
2017-09-07T08:49:36.849Z,70.20
2017-09-07T08:52:04.461Z,70.60
2017-09-07T08:54:32.049Z,70.00
2017-09-07T08:56:59.669Z,70.10
2017-09-07T08:59:27.258Z,69.80
2017-09-07T09:01:54.842Z,69.90
2017-09-07T09:04:22.637Z,69.60
2017-09-07T09:06:50.226Z,69.50
2017-09-07T09:09:17.806Z,69.90
2017-09-07T09:11:45.434Z,69.80
2017-09-07T09:14:13.019Z,69.60
2017-09-07T09:16:40.601Z,69.00
2017-09-07T09:19:08.238Z,70.90
2017-09-07T09:21:35.834Z,69.80
2017-09-07T09:24:03.418Z,72.70
2017-09-07T09:26:31.276Z,77.90
2017-09-07T09:28:59.625Z,75.50
2017-09-07T09:31:27.210Z,75.40
2017-09-07T09:33:54.841Z,78.30
2017-09-07T09:36:22.420Z,76.60
2017-09-07T09:38:50.005Z,76.50
2017-09-07T09:41:17.806Z,78.60
2017-09-07T09:43:45.389Z,77.00
2017-09-07T09:46:12.977Z,77.00
2017-09-07T09:48:40.606Z,76.70
2017-09-07T09:51:08.188Z,74.00
2017-09-07T09:53:35.770Z,74.60
2017-09-07T09:56:03.558Z,76.70
2017-09-07T09:58:31.142Z,73.70
2017-09-07T10:00:58.725Z,72.70
2017-09-07T10:03:26.334Z,73.20
2017-09-07T10:05:54.145Z,73.60
2017-09-07T10:08:22.497Z,77.80
2017-09-07T10:10:50.081Z,77.80
2017-09-07T10:13:17.690Z,78.10
2017-09-07T10:15:45.266Z,76.30
2017-09-07T10:18:12.841Z,76.60
2017-09-07T10:20:40.466Z,76.10
2017-09-07T10:23:08.047Z,77.80
2017-09-07T10:25:35.626Z,72.70
2017-09-07T10:28:03.253Z,72.90
2017-09-07T10:30:30.839Z,74.00
2017-09-07T10:32:58.422Z,73.10
2017-09-07T10:35:26.142Z,73.60
2017-09-07T10:37:53.726Z,70.40
2017-09-07T10:40:21.343Z,72.70
2017-09-07T10:42:48.972Z,72.60
2017-09-07T10:45:16.618Z,69.50
2017-09-07T10:47:44.229Z,70.30
2017-09-07T10:50:11.862Z,70.40
2017-09-07T10:52:39.446Z,69.70
2017-09-07T10:55:07.025Z,70.10
2017-09-07T10:57:34.654Z,70.50
2017-09-07T11:00:02.242Z,69.30
2017-09-07T11:02:29.827Z,69.10
2017-09-07T11:04:57.441Z,67.70
2017-09-07T11:07:25.026Z,65.90
2017-09-07T11:09:52.604Z,65.60
2017-09-07T11:12:20.221Z,67.20
2017-09-07T11:14:47.806Z,66.60
2017-09-07T11:17:15.389Z,68.30
2017-09-07T11:19:43.177Z,67.70
2017-09-07T11:22:10.754Z,66.20
2017-09-07T11:24:38.332Z,67.60
2017-09-07T11:27:05.979Z,66.30
2017-09-07T11:29:33.558Z,64.30
2017-09-07T11:32:01.138Z,66.00
2017-09-07T11:34:28.769Z,66.10
2017-09-07T11:36:56.357Z,66.60
2017-09-07T11:39:23.943Z,66.00
2017-09-07T11:41:51.745Z,65.70
2017-09-07T11:44:19.326Z,63.00
2017-09-07T11:46:46.906Z,63.40
2017-09-07T11:49:14.521Z,65.50
2017-09-07T11:51:42.102Z,64.70
2017-09-07T11:54:09.690Z,65.40
2017-09-07T11:56:37.305Z,65.20
2017-09-07T11:59:04.881Z,65.70
2017-09-07T12:01:32.465Z,65.80
2017-09-07T12:04:00.086Z,66.40
2017-09-07T12:06:27.662Z,64.40
2017-09-07T12:08:55.252Z,64.90
2017-09-07T12:11:23.093Z,65.80
2017-09-07T12:13:50.677Z,71.00
2017-09-07T12:16:18.253Z,71.70
2017-09-07T12:18:45.893Z,71.40
2017-09-07T12:21:13.486Z,78.70
2017-09-07T12:23:41.074Z,87.70
2017-09-07T12:26:08.706Z,90.30
2017-09-07T12:28:36.285Z,91.70
2017-09-07T12:31:03.862Z,91.90
2017-09-07T12:33:31.505Z,91.50
2017-09-07T12:35:59.083Z,92.50
2017-09-07T12:38:26.661Z,91.50
2017-09-07T12:40:54.287Z,92.10
2017-09-07T12:43:21.869Z,92.30
2017-09-07T12:45:49.454Z,94.10
2017-09-07T12:48:17.073Z,94.80
2017-09-07T12:50:45.433Z,94.10
2017-09-07T12:53:13.017Z,94.10
2017-09-07T12:55:40.645Z,94.60
2017-09-07T12:58:08.238Z,92.50
2017-09-07T13:00:35.821Z,92.20
2017-09-07T13:03:03.656Z,93.00
2017-09-07T13:05:31.242Z,93.40
2017-09-07T13:07:58.825Z,91.80
2017-09-07T13:10:26.453Z,91.20
2017-09-07T13:12:54.029Z,89.50
2017-09-07T13:15:21.605Z,89.00
2017-09-07T13:17:49.401Z,88.90
2017-09-07T13:20:16.982Z,89.10
2017-09-07T13:22:44.558Z,89.70
2017-09-07T13:25:12.166Z,89.10
2017-09-07T13:27:39.746Z,86.50
2017-09-07T13:30:07.510Z,85.00
2017-09-07T13:32:35.857Z,83.80
2017-09-07T13:35:03.434Z,83.60
2017-09-07T13:37:31.050Z,82.00
2017-09-07T13:39:58.629Z,82.00
2017-09-07T13:42:26.205Z,79.90
2017-09-07T13:44:53.835Z,76.10
2017-09-07T13:47:21.414Z,77.10
2017-09-07T13:49:48.994Z,73.60
2017-09-07T13:52:16.593Z,76.20
2017-09-07T13:54:44.165Z,74.00
2017-09-07T13:57:11.783Z,75.20
2017-09-07T13:59:39.362Z,77.70
2017-09-07T14:02:06.942Z,78.80
2017-09-07T14:04:34.708Z,75.60
2017-09-07T14:07:02.294Z,78.50
2017-09-07T14:09:29.874Z,77.60
2017-09-07T14:11:57.514Z,74.10
2017-09-07T14:14:25.097Z,77.50
2017-09-07T14:16:52.677Z,71.30
2017-09-07T14:19:20.394Z,69.30
2017-09-07T14:21:47.981Z,68.00
2017-09-07T14:24:15.684Z,68.70
2017-09-07T14:26:43.389Z,67.70
2017-09-07T14:29:10.966Z,66.30
2017-09-07T14:31:38.812Z,65.20
2017-09-07T14:34:06.424Z,67.60
2017-09-07T14:36:33.990Z,65.70
2017-09-07T14:39:01.609Z,65.80
2017-09-07T14:41:29.185Z,66.70
2017-09-07T14:43:56.764Z,64.90
2017-09-07T14:46:24.465Z,64.20
2017-09-07T14:48:52.826Z,68.10
2017-09-07T14:51:20.406Z,68.10
2017-09-07T14:53:48.037Z,67.00
2017-09-07T14:56:15.618Z,65.20
2017-09-07T14:58:43.201Z,68.40
2017-09-07T15:01:10.842Z,64.40
2017-09-07T15:03:38.423Z,62.40
2017-09-07T15:06:06.005Z,62.50
2017-09-07T15:08:33.645Z,61.50
2017-09-07T15:11:01.222Z,58.20
2017-09-07T15:13:28.801Z,60.00
2017-09-07T15:15:56.701Z,61.00
2017-09-07T15:18:24.354Z,58.70
2017-09-07T15:20:51.932Z,60.40
2017-09-07T15:23:19.553Z,62.60
2017-09-07T15:25:47.250Z,66.20
2017-09-07T15:28:14.920Z,65.60
2017-09-07T15:30:42.821Z,66.20
2017-09-07T15:33:10.402Z,68.20
2017-09-07T15:35:37.991Z,69.30
2017-09-07T15:38:05.614Z,68.90
2017-09-07T15:40:33.193Z,69.20
2017-09-07T15:43:00.782Z,68.60
2017-09-07T15:45:28.406Z,70.30
2017-09-07T15:47:56.086Z,68.20
2017-09-07T15:50:24.442Z,67.70
2017-09-07T15:52:52.075Z,67.60
2017-09-07T15:55:19.682Z,69.10
2017-09-07T15:57:47.269Z,69.20
2017-09-07T16:00:14.893Z,69.30
2017-09-07T16:02:42.482Z,69.40
2017-09-07T16:05:10.066Z,69.80
2017-09-07T16:07:37.666Z,68.70
2017-09-07T16:10:05.895Z,68.60
2017-09-07T16:12:33.713Z,67.80
2017-09-07T16:15:01.377Z,68.70
2017-09-07T16:17:28.954Z,67.90
2017-09-07T16:19:56.589Z,68.00
2017-09-07T16:22:24.166Z,69.20
2017-09-07T16:24:51.745Z,68.70
2017-09-07T16:27:19.470Z,70.80
2017-09-07T16:29:47.134Z,70.70
2017-09-07T16:32:14.726Z,69.00
2017-09-07T16:34:42.458Z,69.10
2017-09-07T16:37:10.044Z,68.90
2017-09-07T16:39:37.631Z,70.30
2017-09-07T16:42:05.257Z,71.50
2017-09-07T16:44:32.898Z,73.50
2017-09-07T16:47:28.689Z,75.00
2017-09-07T16:49:56.278Z,74.90
2017-09-07T16:52:23.884Z,75.00
2017-09-07T16:54:51.522Z,74.60
2017-09-07T16:57:19.143Z,74.00
2017-09-07T16:59:47.612Z,73.90
2017-09-07T17:02:15.992Z,77.90
2017-09-07T17:04:44.349Z,78.10
2017-09-07T17:07:11.997Z,78.10
2017-09-07T17:09:39.577Z,78.10
2017-09-07T17:12:07.155Z,78.90
2017-09-07T17:14:35.587Z,76.50
2017-09-07T17:17:03.185Z,76.40
2017-09-07T17:19:30.797Z,77.80
2017-09-07T17:21:58.614Z,79.10
2017-09-07T17:24:26.194Z,78.40
2017-09-07T17:26:53.782Z,81.40
2017-09-07T17:29:21.406Z,81.60
2017-09-07T17:31:48.993Z,81.20
2017-09-07T17:34:16.563Z,81.00
2017-09-07T17:36:44.181Z,80.70
2017-09-07T17:39:12.521Z,79.60
2017-09-07T17:41:40.211Z,79.50
2017-09-07T17:44:08.597Z,80.70
2017-09-07T17:46:36.178Z,80.70
2017-09-07T17:49:03.770Z,81.00
2017-09-07T17:51:31.461Z,82.40
2017-09-07T17:53:59.846Z,83.20
2017-09-07T17:56:28.434Z,83.60
2017-09-07T17:58:56.034Z,83.60
2017-09-07T18:01:23.634Z,83.30
2017-09-07T18:03:52.150Z,81.90
2017-09-07T18:06:19.786Z,81.90
2017-09-07T18:08:48.146Z,82.80
2017-09-07T18:11:16.752Z,83.00
2017-09-07T18:13:45.102Z,84.30
2017-09-07T18:16:12.699Z,84.20
2017-09-07T18:18:40.355Z,83.30
2017-09-07T18:21:07.946Z,83.10
2017-09-07T18:23:35.561Z,85.40
2017-09-07T18:26:03.178Z,85.20
2017-09-07T18:28:30.762Z,82.90
2017-09-07T18:30:59.154Z,84.60
2017-09-07T18:33:27.514Z,83.30
2017-09-07T18:35:55.893Z,83.60
2017-09-07T18:38:24.494Z,84.10
2017-09-07T18:40:52.858Z,84.10
2017-09-07T18:43:20.458Z,84.10
2017-09-07T18:45:48.294Z,87.30
2017-09-07T18:48:16.669Z,86.10
2017-09-07T18:50:45.026Z,87.20
2017-09-07T18:53:12.814Z,87.20
2017-09-07T18:55:41.169Z,85.90
2017-09-07T18:58:09.045Z,85.70
2017-09-07T19:00:37.545Z,85.10
2017-09-07T19:03:05.143Z,85.00
2017-09-07T19:05:32.730Z,87.50
2017-09-07T19:08:00.367Z,84.90
2017-09-07T19:10:27.958Z,84.50
2017-09-07T19:12:56.454Z,86.70
2017-09-07T19:15:24.083Z,86.60
2017-09-07T19:17:51.694Z,86.30
2017-09-07T19:20:19.282Z,85.70
2017-09-07T19:22:47.097Z,86.30
2017-09-07T19:25:15.469Z,84.80
2017-09-07T19:27:43.817Z,84.60
2017-09-07T19:30:11.725Z,84.60
2017-09-07T19:32:40.142Z,84.70
2017-09-07T19:35:07.793Z,85.50
2017-09-07T19:37:35.462Z,85.10
2017-09-07T19:40:03.042Z,85.60
2017-09-07T19:42:30.635Z,85.80
2017-09-07T19:44:59.027Z,87.40
2017-09-07T19:47:26.630Z,87.30
2017-09-07T19:49:54.215Z,88.60
2017-09-07T19:52:22.602Z,90.80
2017-09-07T19:54:50.953Z,86.60
2017-09-07T19:57:18.642Z,86.50
2017-09-07T19:59:47.034Z,84.50
2017-09-07T20:02:14.614Z,84.50
2017-09-07T20:04:42.234Z,84.70
2017-09-07T20:07:10.653Z,85.80
2017-09-07T20:09:38.239Z,85.80
2017-09-07T20:12:05.823Z,85.90
2017-09-07T20:14:34.262Z,90.30
2017-09-07T20:17:01.846Z,90.00
2017-09-07T20:19:30.233Z,88.40
2017-09-07T20:21:57.910Z,88.40
2017-09-07T20:24:26.268Z,87.60
2017-09-07T20:26:54.766Z,86.10
2017-09-07T20:29:23.245Z,87.30
2017-09-07T20:31:51.595Z,85.70
2017-09-07T20:34:20.022Z,87.00
2017-09-07T20:36:47.618Z,87.00
2017-09-07T20:39:15.207Z,89.80
2017-09-07T20:41:43.598Z,85.10
2017-09-07T20:44:11.945Z,87.60
2017-09-07T20:46:39.525Z,87.50
2017-09-07T20:49:08.109Z,89.40
2017-09-07T20:51:36.453Z,87.00
2017-09-07T20:54:04.039Z,86.90
2017-09-07T20:56:32.443Z,87.60
2017-09-07T20:59:00.186Z,87.40
2017-09-07T21:01:28.542Z,87.80
2017-09-07T21:03:56.181Z,87.70
2017-09-07T21:06:23.798Z,86.80
2017-09-07T21:08:51.550Z,88.20
2017-09-07T21:11:19.938Z,87.40
2017-09-07T21:13:47.521Z,87.20
2017-09-07T21:16:15.105Z,87.60
2017-09-07T21:18:42.878Z,86.40
2017-09-07T21:21:10.457Z,86.40
2017-09-07T21:23:38.811Z,86.30
2017-09-07T21:26:06.454Z,86.30
2017-09-07T21:28:34.033Z,86.50
2017-09-07T21:31:01.614Z,86.40
2017-09-07T21:33:29.989Z,85.60
2017-09-07T21:35:58.338Z,85.70
2017-09-07T21:38:25.930Z,85.60
2017-09-07T21:40:54.498Z,86.40
2017-09-07T21:43:22.081Z,86.30
2017-09-07T21:45:50.425Z,88.80
2017-09-07T21:48:18.046Z,88.70
2017-09-07T21:50:45.630Z,94.00
2017-09-07T21:53:13.210Z,89.70
2017-09-07T21:55:41.802Z,90.70
2017-09-07T21:58:10.177Z,86.50
2017-09-07T22:00:38.557Z,91.50
2017-09-07T22:03:07.037Z,85.60
2017-09-07T22:05:35.378Z,84.70
2017-09-07T22:08:02.957Z,84.60
2017-09-07T22:10:30.586Z,84.30
2017-09-07T22:12:58.167Z,84.90
2017-09-07T22:15:25.745Z,85.30
2017-09-07T22:17:54.231Z,86.70
2017-09-07T22:20:22.587Z,86.00
2017-09-07T22:22:50.174Z,86.00
2017-09-07T22:25:17.959Z,86.30
2017-09-07T22:27:45.546Z,85.90
